sensor_id;sensor_type;location;lat;lon;timestamp;P1;durP1;ratioP1;P2;durP2;ratioP2
10497;SDS011;5296;51.060;13.750;2022-08-03T00:00:47;4.00;;;2.90;;
10497;SDS011;5296;51.060;13.750;2022-08-03T00:05:49;4.90;;;2.80;;
10497;SDS011;5296;51.060;13.750;2022-08-03T00:11:05;5.53;;;2.92;;
10497;SDS011;5296;51.060;13.750;2022-08-03T00:16:07;4.82;;;2.80;;
10497;SDS011;5296;51.060;13.750;2022-08-03T00:21:10;5.43;;;3.15;;
10497;SDS011;5296;51.060;13.750;2022-08-03T00:26:12;5.00;;;3.00;;
10497;SDS011;5296;51.060;13.750;2022-08-03T00:31:14;4.18;;;2.75;;
10497;SDS011;5296;51.060;13.750;2022-08-03T00:36:15;5.00;;;2.88;;
10497;SDS011;5296;51.060;13.750;2022-08-03T00:41:17;3.30;;;3.00;;
10497;SDS011;5296;51.060;13.750;2022-08-03T00:46:19;3.20;;;2.55;;
10497;SDS011;5296;51.060;13.750;2022-08-03T00:51:22;3.20;;;2.80;;
10497;SDS011;5296;51.060;13.750;2022-08-03T00:56:24;5.15;;;2.92;;
10497;SDS011;5296;51.060;13.750;2022-08-03T01:01:26;3.55;;;3.25;;
10497;SDS011;5296;51.060;13.750;2022-08-03T01:06:41;4.28;;;2.90;;
10497;SDS011;5296;51.060;13.750;2022-08-03T01:17:54;3.20;;;2.85;;
10497;SDS011;5296;51.060;13.750;2022-08-03T01:23:21;5.65;;;3.10;;
10497;SDS011;5296;51.060;13.750;2022-08-03T01:33:39;4.93;;;3.45;;
10497;SDS011;5296;51.060;13.750;2022-08-03T01:38:48;3.42;;;3.13;;
10497;SDS011;5296;51.060;13.750;2022-08-03T01:43:52;4.47;;;3.83;;
10497;SDS011;5296;51.060;13.750;2022-08-03T01:49:15;4.07;;;3.70;;
10497;SDS011;5296;51.060;13.750;2022-08-03T01:54:17;3.78;;;3.47;;
10497;SDS011;5296;51.060;13.750;2022-08-03T01:59:19;5.55;;;3.75;;
10497;SDS011;5296;51.060;13.750;2022-08-03T02:04:22;4.07;;;3.78;;
10497;SDS011;5296;51.060;13.750;2022-08-03T02:09:24;6.82;;;3.97;;
10497;SDS011;5296;51.060;13.750;2022-08-03T02:14:28;4.82;;;4.28;;
10497;SDS011;5296;51.060;13.750;2022-08-03T02:19:30;6.72;;;3.70;;
10497;SDS011;5296;51.060;13.750;2022-08-03T02:24:36;4.30;;;3.67;;
10497;SDS011;5296;51.060;13.750;2022-08-03T02:29:37;4.50;;;4.10;;
10497;SDS011;5296;51.060;13.750;2022-08-03T02:34:41;4.57;;;3.72;;
10497;SDS011;5296;51.060;13.750;2022-08-03T02:39:46;4.43;;;3.70;;
10497;SDS011;5296;51.060;13.750;2022-08-03T02:44:49;4.50;;;3.42;;
10497;SDS011;5296;51.060;13.750;2022-08-03T02:49:53;4.13;;;3.83;;
10497;SDS011;5296;51.060;13.750;2022-08-03T02:54:58;5.25;;;3.83;;
10497;SDS011;5296;51.060;13.750;2022-08-03T03:00:00;4.15;;;3.85;;
10497;SDS011;5296;51.060;13.750;2022-08-03T03:05:02;4.63;;;3.80;;
10497;SDS011;5296;51.060;13.750;2022-08-03T03:10:24;5.60;;;4.53;;
10497;SDS011;5296;51.060;13.750;2022-08-03T03:15:26;4.97;;;4.57;;
10497;SDS011;5296;51.060;13.750;2022-08-03T03:20:28;4.22;;;3.83;;
10497;SDS011;5296;51.060;13.750;2022-08-03T03:25:31;5.55;;;4.72;;
10497;SDS011;5296;51.060;13.750;2022-08-03T03:30:33;5.63;;;4.43;;
10497;SDS011;5296;51.060;13.750;2022-08-03T03:35:34;5.18;;;4.68;;
10497;SDS011;5296;51.060;13.750;2022-08-03T03:40:39;5.28;;;4.78;;
10497;SDS011;5296;51.060;13.750;2022-08-03T03:45:41;5.53;;;4.90;;
10497;SDS011;5296;51.060;13.750;2022-08-03T03:50:43;5.60;;;4.80;;
10497;SDS011;5296;51.060;13.750;2022-08-03T03:55:45;5.50;;;5.00;;
10497;SDS011;5296;51.060;13.750;2022-08-03T04:01:03;6.70;;;5.15;;
10497;SDS011;5296;51.060;13.750;2022-08-03T04:06:04;7.30;;;5.07;;
10497;SDS011;5296;51.060;13.750;2022-08-03T04:11:26;8.57;;;5.13;;
10497;SDS011;5296;51.060;13.750;2022-08-03T04:16:36;9.13;;;5.43;;
10497;SDS011;5296;51.060;13.750;2022-08-03T04:21:45;6.45;;;5.53;;
10497;SDS011;5296;51.060;13.750;2022-08-03T04:26:48;6.03;;;5.38;;
10497;SDS011;5296;51.060;13.750;2022-08-03T04:31:53;6.85;;;5.63;;
10497;SDS011;5296;51.060;13.750;2022-08-03T04:36:57;5.07;;;4.55;;
10497;SDS011;5296;51.060;13.750;2022-08-03T04:42:03;7.00;;;4.93;;
10497;SDS011;5296;51.060;13.750;2022-08-03T04:47:09;5.60;;;5.07;;
10497;SDS011;5296;51.060;13.750;2022-08-03T04:52:10;8.23;;;6.05;;
10497;SDS011;5296;51.060;13.750;2022-08-03T04:57:12;6.68;;;5.55;;
10497;SDS011;5296;51.060;13.750;2022-08-03T05:02:23;5.75;;;5.10;;
10497;SDS011;5296;51.060;13.750;2022-08-03T05:07:25;6.13;;;5.53;;
10497;SDS011;5296;51.060;13.750;2022-08-03T05:12:36;6.68;;;5.43;;
10497;SDS011;5296;51.060;13.750;2022-08-03T05:17:37;7.80;;;4.88;;
10497;SDS011;5296;51.060;13.750;2022-08-03T05:22:39;5.13;;;4.68;;
10497;SDS011;5296;51.060;13.750;2022-08-03T05:27:41;8.18;;;4.95;;
10497;SDS011;5296;51.060;13.750;2022-08-03T05:32:42;5.70;;;4.32;;
10497;SDS011;5296;51.060;13.750;2022-08-03T05:37:44;5.78;;;4.18;;
10497;SDS011;5296;51.060;13.750;2022-08-03T05:42:55;4.43;;;4.00;;
10497;SDS011;5296;51.060;13.750;2022-08-03T05:47:58;5.43;;;4.38;;
10497;SDS011;5296;51.060;13.750;2022-08-03T05:52:59;6.35;;;3.65;;
10497;SDS011;5296;51.060;13.750;2022-08-03T05:58:01;4.80;;;3.65;;
10497;SDS011;5296;51.060;13.750;2022-08-03T06:03:04;6.07;;;3.75;;
10497;SDS011;5296;51.060;13.750;2022-08-03T06:08:05;5.38;;;4.05;;
10497;SDS011;5296;51.060;13.750;2022-08-03T06:13:07;4.00;;;3.70;;
10497;SDS011;5296;51.060;13.750;2022-08-03T06:18:08;4.63;;;3.83;;
10497;SDS011;5296;51.060;13.750;2022-08-03T06:23:10;3.92;;;3.55;;
10497;SDS011;5296;51.060;13.750;2022-08-03T06:28:18;6.05;;;3.38;;
10497;SDS011;5296;51.060;13.750;2022-08-03T06:33:39;5.07;;;3.72;;
10497;SDS011;5296;51.060;13.750;2022-08-03T06:39:01;6.22;;;3.97;;
10497;SDS011;5296;51.060;13.750;2022-08-03T06:44:04;9.55;;;4.07;;
10497;SDS011;5296;51.060;13.750;2022-08-03T06:49:06;5.07;;;3.65;;
10497;SDS011;5296;51.060;13.750;2022-08-03T06:54:08;5.45;;;3.72;;
10497;SDS011;5296;51.060;13.750;2022-08-03T06:59:10;6.25;;;3.78;;
10497;SDS011;5296;51.060;13.750;2022-08-03T07:04:31;7.10;;;3.35;;
10497;SDS011;5296;51.060;13.750;2022-08-03T07:09:33;3.95;;;3.42;;
10497;SDS011;5296;51.060;13.750;2022-08-03T07:14:35;5.50;;;3.20;;
10497;SDS011;5296;51.060;13.750;2022-08-03T07:19:36;4.10;;;3.13;;
10497;SDS011;5296;51.060;13.750;2022-08-03T07:24:38;4.30;;;3.05;;
10497;SDS011;5296;51.060;13.750;2022-08-03T07:29:39;6.40;;;3.40;;
10497;SDS011;5296;51.060;13.750;2022-08-03T07:34:41;5.80;;;3.03;;
10497;SDS011;5296;51.060;13.750;2022-08-03T07:39:43;4.55;;;2.80;;
10497;SDS011;5296;51.060;13.750;2022-08-03T07:44:45;4.50;;;2.97;;
10497;SDS011;5296;51.060;13.750;2022-08-03T07:49:46;3.50;;;3.20;;
10497;SDS011;5296;51.060;13.750;2022-08-03T07:54:48;3.90;;;2.90;;
10497;SDS011;5296;51.060;13.750;2022-08-03T07:59:49;3.28;;;2.90;;
10497;SDS011;5296;51.060;13.750;2022-08-03T08:05:12;3.53;;;2.50;;
10497;SDS011;5296;51.060;13.750;2022-08-03T08:10:13;7.20;;;2.97;;
10497;SDS011;5296;51.060;13.750;2022-08-03T08:15:15;2.95;;;2.75;;
10497;SDS011;5296;51.060;13.750;2022-08-03T08:20:18;5.07;;;2.85;;
10497;SDS011;5296;51.060;13.750;2022-08-03T08:25:31;6.13;;;2.45;;
10497;SDS011;5296;51.060;13.750;2022-08-03T08:30:33;2.60;;;2.40;;
10497;SDS011;5296;51.060;13.750;2022-08-03T08:35:35;4.13;;;2.60;;
10497;SDS011;5296;51.060;13.750;2022-08-03T08:40:37;2.13;;;1.92;;
10497;SDS011;5296;51.060;13.750;2022-08-03T08:45:39;3.70;;;2.00;;
10497;SDS011;5296;51.060;13.750;2022-08-03T08:50:41;20.52;;;2.88;;
10497;SDS011;5296;51.060;13.750;2022-08-03T08:55:43;3.47;;;2.25;;
10497;SDS011;5296;51.060;13.750;2022-08-03T09:01:00;4.47;;;2.35;;
10497;SDS011;5296;51.060;13.750;2022-08-03T09:06:02;6.05;;;2.33;;
10497;SDS011;5296;51.060;13.750;2022-08-03T09:11:04;2.30;;;2.15;;
10497;SDS011;5296;51.060;13.750;2022-08-03T09:26:36;3.92;;;2.17;;
10497;SDS011;5296;51.060;13.750;2022-08-03T09:31:39;2.58;;;2.30;;
10497;SDS011;5296;51.060;13.750;2022-08-03T09:36:48;3.58;;;2.10;;
10497;SDS011;5296;51.060;13.750;2022-08-03T09:42:04;4.20;;;2.20;;
10497;SDS011;5296;51.060;13.750;2022-08-03T09:47:10;2.85;;;2.10;;
10497;SDS011;5296;51.060;13.750;2022-08-03T09:52:16;7.68;;;2.20;;
10497;SDS011;5296;51.060;13.750;2022-08-03T09:57:39;6.18;;;2.50;;
10497;SDS011;5296;51.060;13.750;2022-08-03T10:02:44;7.00;;;2.85;;
10497;SDS011;5296;51.060;13.750;2022-08-03T10:07:47;7.15;;;2.67;;
10497;SDS011;5296;51.060;13.750;2022-08-03T10:12:50;2.38;;;2.05;;
10497;SDS011;5296;51.060;13.750;2022-08-03T10:17:51;6.45;;;2.42;;
10497;SDS011;5296;51.060;13.750;2022-08-03T10:22:53;2.85;;;2.47;;
10497;SDS011;5296;51.060;13.750;2022-08-03T10:27:55;2.30;;;2.10;;
10497;SDS011;5296;51.060;13.750;2022-08-03T10:33:00;2.15;;;2.05;;
10497;SDS011;5296;51.060;13.750;2022-08-03T10:38:07;2.45;;;2.22;;
10497;SDS011;5296;51.060;13.750;2022-08-03T10:43:11;2.17;;;1.95;;
10497;SDS011;5296;51.060;13.750;2022-08-03T10:48:19;2.83;;;2.60;;
10497;SDS011;5296;51.060;13.750;2022-08-03T10:53:34;4.97;;;2.70;;
10497;SDS011;5296;51.060;13.750;2022-08-03T11:14:14;10.88;;;2.97;;
10497;SDS011;5296;51.060;13.750;2022-08-03T11:19:17;3.08;;;2.30;;
10497;SDS011;5296;51.060;13.750;2022-08-03T11:35:29;2.60;;;2.17;;
10497;SDS011;5296;51.060;13.750;2022-08-03T11:45:36;3.80;;;2.25;;
10497;SDS011;5296;51.060;13.750;2022-08-03T11:50:38;2.90;;;1.95;;
10497;SDS011;5296;51.060;13.750;2022-08-03T11:55:40;2.55;;;2.35;;
10497;SDS011;5296;51.060;13.750;2022-08-03T12:00:44;5.95;;;2.17;;
10497;SDS011;5296;51.060;13.750;2022-08-03T12:05:47;8.27;;;2.55;;
10497;SDS011;5296;51.060;13.750;2022-08-03T12:10:53;3.22;;;2.30;;
10497;SDS011;5296;51.060;13.750;2022-08-03T12:15:56;18.33;;;3.20;;
10497;SDS011;5296;51.060;13.750;2022-08-03T12:21:06;3.63;;;2.58;;
10497;SDS011;5296;51.060;13.750;2022-08-03T12:26:10;8.18;;;2.70;;
10497;SDS011;5296;51.060;13.750;2022-08-03T12:31:12;4.85;;;2.03;;
10497;SDS011;5296;51.060;13.750;2022-08-03T12:36:13;3.40;;;2.33;;
10497;SDS011;5296;51.060;13.750;2022-08-03T12:41:15;2.20;;;2.10;;
10497;SDS011;5296;51.060;13.750;2022-08-03T12:46:32;5.93;;;2.28;;
10497;SDS011;5296;51.060;13.750;2022-08-03T12:57:01;3.55;;;2.08;;
10497;SDS011;5296;51.060;13.750;2022-08-03T13:02:03;2.40;;;2.20;;
10497;SDS011;5296;51.060;13.750;2022-08-03T13:07:10;2.35;;;1.90;;
10497;SDS011;5296;51.060;13.750;2022-08-03T13:12:20;2.42;;;2.22;;
10497;SDS011;5296;51.060;13.750;2022-08-03T13:17:23;2.78;;;2.53;;
10497;SDS011;5296;51.060;13.750;2022-08-03T13:22:26;3.13;;;2.20;;
10497;SDS011;5296;51.060;13.750;2022-08-03T13:27:30;57.65;;;9.15;;
10497;SDS011;5296;51.060;13.750;2022-08-03T13:32:52;10.05;;;3.53;;
10497;SDS011;5296;51.060;13.750;2022-08-03T13:37:53;66.43;;;9.18;;
10497;SDS011;5296;51.060;13.750;2022-08-03T13:42:55;11.05;;;2.70;;
10497;SDS011;5296;51.060;13.750;2022-08-03T13:47:57;2.85;;;2.03;;
10497;SDS011;5296;51.060;13.750;2022-08-03T13:52:58;18.92;;;3.72;;
10497;SDS011;5296;51.060;13.750;2022-08-03T13:58:00;40.20;;;5.30;;
10497;SDS011;5296;51.060;13.750;2022-08-03T14:03:07;2.63;;;1.70;;
10497;SDS011;5296;51.060;13.750;2022-08-03T14:08:14;25.08;;;3.70;;
10497;SDS011;5296;51.060;13.750;2022-08-03T14:13:16;4.10;;;2.40;;
10497;SDS011;5296;51.060;13.750;2022-08-03T14:18:19;52.35;;;7.57;;
10497;SDS011;5296;51.060;13.750;2022-08-03T14:23:34;3.42;;;1.83;;
10497;SDS011;5296;51.060;13.750;2022-08-03T14:28:37;2.92;;;1.90;;
10497;SDS011;5296;51.060;13.750;2022-08-03T14:33:39;3.25;;;2.38;;
10497;SDS011;5296;51.060;13.750;2022-08-03T14:38:40;5.53;;;2.00;;
10497;SDS011;5296;51.060;13.750;2022-08-03T14:43:42;6.07;;;2.22;;
10497;SDS011;5296;51.060;13.750;2022-08-03T14:49:02;5.22;;;2.00;;
10497;SDS011;5296;51.060;13.750;2022-08-03T14:54:25;2.90;;;2.10;;
10497;SDS011;5296;51.060;13.750;2022-08-03T14:59:27;11.98;;;3.05;;
10497;SDS011;5296;51.060;13.750;2022-08-03T15:04:48;2.65;;;2.00;;
10497;SDS011;5296;51.060;13.750;2022-08-03T15:09:50;2.25;;;1.95;;
10497;SDS011;5296;51.060;13.750;2022-08-03T15:14:51;3.05;;;2.30;;
10497;SDS011;5296;51.060;13.750;2022-08-03T15:19:53;4.53;;;2.10;;
10497;SDS011;5296;51.060;13.750;2022-08-03T15:25:06;2.05;;;1.65;;
10497;SDS011;5296;51.060;13.750;2022-08-03T15:30:28;2.55;;;1.75;;
10497;SDS011;5296;51.060;13.750;2022-08-03T15:35:31;2.70;;;1.75;;
10497;SDS011;5296;51.060;13.750;2022-08-03T15:40:33;3.53;;;2.00;;
10497;SDS011;5296;51.060;13.750;2022-08-03T15:45:35;2.63;;;1.70;;
10497;SDS011;5296;51.060;13.750;2022-08-03T15:50:37;4.32;;;2.17;;
10497;SDS011;5296;51.060;13.750;2022-08-03T15:55:39;3.63;;;1.90;;
10497;SDS011;5296;51.060;13.750;2022-08-03T16:00:41;3.70;;;2.00;;
10497;SDS011;5296;51.060;13.750;2022-08-03T16:05:43;3.78;;;2.00;;
10497;SDS011;5296;51.060;13.750;2022-08-03T16:10:45;4.45;;;1.98;;
10497;SDS011;5296;51.060;13.750;2022-08-03T16:15:48;2.85;;;1.85;;
10497;SDS011;5296;51.060;13.750;2022-08-03T16:20:50;2.67;;;2.13;;
10497;SDS011;5296;51.060;13.750;2022-08-03T16:25:52;3.03;;;2.08;;
10497;SDS011;5296;51.060;13.750;2022-08-03T16:30:53;2.75;;;2.10;;
10497;SDS011;5296;51.060;13.750;2022-08-03T16:35:55;3.50;;;2.05;;
10497;SDS011;5296;51.060;13.750;2022-08-03T16:40:56;5.82;;;2.10;;
10497;SDS011;5296;51.060;13.750;2022-08-03T16:45:58;2.15;;;1.95;;
10497;SDS011;5296;51.060;13.750;2022-08-03T16:51:00;2.60;;;2.10;;
10497;SDS011;5296;51.060;13.750;2022-08-03T16:56:03;4.05;;;2.03;;
10497;SDS011;5296;51.060;13.750;2022-08-03T17:01:11;4.38;;;2.00;;
10497;SDS011;5296;51.060;13.750;2022-08-03T17:06:25;6.38;;;2.13;;
10497;SDS011;5296;51.060;13.750;2022-08-03T17:11:39;8.15;;;2.50;;
10497;SDS011;5296;51.060;13.750;2022-08-03T17:16:48;4.43;;;1.90;;
10497;SDS011;5296;51.060;13.750;2022-08-03T17:22:05;3.08;;;2.20;;
10497;SDS011;5296;51.060;13.750;2022-08-03T17:27:16;2.50;;;2.28;;
10497;SDS011;5296;51.060;13.750;2022-08-03T17:32:41;2.10;;;1.90;;
10497;SDS011;5296;51.060;13.750;2022-08-03T17:37:58;2.28;;;2.13;;
10497;SDS011;5296;51.060;13.750;2022-08-03T17:43:04;3.97;;;1.90;;
10497;SDS011;5296;51.060;13.750;2022-08-03T17:48:25;4.50;;;2.20;;
10497;SDS011;5296;51.060;13.750;2022-08-03T17:53:28;1.98;;;1.88;;
10497;SDS011;5296;51.060;13.750;2022-08-03T17:58:47;2.13;;;1.92;;
10497;SDS011;5296;51.060;13.750;2022-08-03T18:03:55;5.63;;;2.30;;
10497;SDS011;5296;51.060;13.750;2022-08-03T18:08:59;3.03;;;2.25;;
10497;SDS011;5296;51.060;13.750;2022-08-03T18:14:26;4.03;;;2.47;;
10497;SDS011;5296;51.060;13.750;2022-08-03T18:19:34;2.40;;;2.20;;
10497;SDS011;5296;51.060;13.750;2022-08-03T18:24:56;2.33;;;2.00;;
10497;SDS011;5296;51.060;13.750;2022-08-03T18:29:59;3.85;;;2.13;;
10497;SDS011;5296;51.060;13.750;2022-08-03T18:35:02;7.93;;;2.40;;
10497;SDS011;5296;51.060;13.750;2022-08-03T18:40:05;9.57;;;3.08;;
10497;SDS011;5296;51.060;13.750;2022-08-03T18:45:07;6.20;;;2.33;;
10497;SDS011;5296;51.060;13.750;2022-08-03T18:50:32;2.40;;;2.20;;
10497;SDS011;5296;51.060;13.750;2022-08-03T18:55:37;2.25;;;2.05;;
10497;SDS011;5296;51.060;13.750;2022-08-03T19:01:03;2.83;;;1.85;;
10497;SDS011;5296;51.060;13.750;2022-08-03T19:06:26;4.20;;;2.58;;
10497;SDS011;5296;51.060;13.750;2022-08-03T19:11:32;4.63;;;2.13;;
10497;SDS011;5296;51.060;13.750;2022-08-03T19:17:04;3.10;;;2.38;;
10497;SDS011;5296;51.060;13.750;2022-08-03T19:22:08;4.75;;;2.60;;
10497;SDS011;5296;51.060;13.750;2022-08-03T19:27:11;3.10;;;2.53;;
10497;SDS011;5296;51.060;13.750;2022-08-03T19:32:14;2.70;;;2.50;;
10497;SDS011;5296;51.060;13.750;2022-08-03T19:37:19;5.90;;;2.53;;
10497;SDS011;5296;51.060;13.750;2022-08-03T19:42:29;3.50;;;2.60;;
10497;SDS011;5296;51.060;13.750;2022-08-03T19:47:35;3.05;;;2.30;;
10497;SDS011;5296;51.060;13.750;2022-08-03T19:52:42;3.38;;;2.45;;
10497;SDS011;5296;51.060;13.750;2022-08-03T19:57:47;3.05;;;2.70;;
10497;SDS011;5296;51.060;13.750;2022-08-03T20:02:57;4.30;;;2.58;;
10497;SDS011;5296;51.060;13.750;2022-08-03T20:08:00;2.90;;;2.60;;
10497;SDS011;5296;51.060;13.750;2022-08-03T20:13:03;4.88;;;2.95;;
10497;SDS011;5296;51.060;13.750;2022-08-03T20:18:08;2.70;;;2.50;;
10497;SDS011;5296;51.060;13.750;2022-08-03T20:23:17;3.55;;;2.60;;
10497;SDS011;5296;51.060;13.750;2022-08-03T20:28:22;3.58;;;2.80;;
10497;SDS011;5296;51.060;13.750;2022-08-03T20:33:27;5.13;;;3.03;;
10497;SDS011;5296;51.060;13.750;2022-08-03T20:38:48;3.38;;;2.47;;
10497;SDS011;5296;51.060;13.750;2022-08-03T20:43:52;3.83;;;2.75;;
10497;SDS011;5296;51.060;13.750;2022-08-03T20:48:53;3.45;;;2.95;;
10497;SDS011;5296;51.060;13.750;2022-08-03T20:53:59;3.63;;;3.13;;
10497;SDS011;5296;51.060;13.750;2022-08-03T20:59:05;5.43;;;2.80;;
10497;SDS011;5296;51.060;13.750;2022-08-03T21:04:15;8.48;;;3.03;;
10497;SDS011;5296;51.060;13.750;2022-08-03T21:09:25;4.43;;;2.53;;
10497;SDS011;5296;51.060;13.750;2022-08-03T21:14:57;2.70;;;2.50;;
10497;SDS011;5296;51.060;13.750;2022-08-03T21:20:05;3.65;;;2.78;;
10497;SDS011;5296;51.060;13.750;2022-08-03T21:25:08;3.35;;;3.05;;
10497;SDS011;5296;51.060;13.750;2022-08-03T21:30:10;8.50;;;3.47;;
10497;SDS011;5296;51.060;13.750;2022-08-03T21:35:12;7.13;;;3.00;;
10497;SDS011;5296;51.060;13.750;2022-08-03T21:40:14;22.05;;;4.20;;
10497;SDS011;5296;51.060;13.750;2022-08-03T21:45:16;16.67;;;3.90;;
10497;SDS011;5296;51.060;13.750;2022-08-03T21:50:18;8.68;;;3.45;;
10497;SDS011;5296;51.060;13.750;2022-08-03T21:55:20;6.03;;;3.33;;
10497;SDS011;5296;51.060;13.750;2022-08-03T22:00:26;5.38;;;3.40;;
10497;SDS011;5296;51.060;13.750;2022-08-03T22:05:28;5.50;;;2.88;;
10497;SDS011;5296;51.060;13.750;2022-08-03T22:10:45;3.95;;;3.08;;
10497;SDS011;5296;51.060;13.750;2022-08-03T22:15:47;3.20;;;3.00;;
10497;SDS011;5296;51.060;13.750;2022-08-03T22:20:49;3.25;;;2.95;;
10497;SDS011;5296;51.060;13.750;2022-08-03T22:25:51;4.45;;;3.30;;
10497;SDS011;5296;51.060;13.750;2022-08-03T22:30:53;5.35;;;3.45;;
10497;SDS011;5296;51.060;13.750;2022-08-03T22:35:56;5.68;;;3.00;;
10497;SDS011;5296;51.060;13.750;2022-08-03T22:40:59;5.38;;;3.20;;
10497;SDS011;5296;51.060;13.750;2022-08-03T22:46:01;3.25;;;2.83;;
10497;SDS011;5296;51.060;13.750;2022-08-03T22:51:13;5.75;;;2.85;;
10497;SDS011;5296;51.060;13.750;2022-08-03T22:56:15;5.93;;;3.10;;
10497;SDS011;5296;51.060;13.750;2022-08-03T23:01:18;3.78;;;3.47;;
10497;SDS011;5296;51.060;13.750;2022-08-03T23:06:20;4.43;;;2.90;;
10497;SDS011;5296;51.060;13.750;2022-08-03T23:11:23;3.17;;;2.83;;
10497;SDS011;5296;51.060;13.750;2022-08-03T23:16:26;3.50;;;3.20;;
10497;SDS011;5296;51.060;13.750;2022-08-03T23:21:29;5.40;;;3.40;;
10497;SDS011;5296;51.060;13.750;2022-08-03T23:26:51;3.63;;;3.38;;
10497;SDS011;5296;51.060;13.750;2022-08-03T23:31:53;3.88;;;3.55;;
10497;SDS011;5296;51.060;13.750;2022-08-03T23:36:57;4.05;;;3.33;;
10497;SDS011;5296;51.060;13.750;2022-08-03T23:42:01;3.70;;;3.40;;
10497;SDS011;5296;51.060;13.750;2022-08-03T23:47:03;6.90;;;3.60;;
10497;SDS011;5296;51.060;13.750;2022-08-03T23:52:15;3.83;;;3.53;;
